Time;durP1;ratioP1;P1;durP2;ratioP2;P2;SDS_P1;SDS_P2;PMS_P1;PMS_P2;Temp;Humidity;BMP_temperature;BMP_pressure;BME280_temperature;BME280_humidity;BME280_pressure;Samples;Min_cycle;Max_cycle;Signal;HPM_P1;HPM_P2
2023/09/15 00:03:38;;;;;;;3.70;2.05;;;;;;;;;;10384747;22;20074;-60
2023/09/15 00:07:38;;;;;;;2.90;1.40;;;;;;;;;;10386375;22;20027;-61
2023/09/15 00:11:42;;;;;;;3.40;1.58;;;;;;;;;;10383821;22;19999;-60
2023/09/15 00:15:42;;;;;;;;;;;;;;;;;;10384539;22;20685;-60
2023/09/15 00:19:42;;;;;;;2.17;1.58;;;;;;;;;;10383147;22;19909;-60
2023/09/15 00:23:43;;;;;;;9.32;1.65;;;;;;;;;;10384814;22;20101;-60
2023/09/15 00:27:43;;;;;;;2.73;1.40;;;;;;;;;;10383167;22;19999;-60
2023/09/15 00:31:43;;;;;;;3.28;1.40;;;;;;;;;;10381041;22;20003;-60
2023/09/15 00:35:44;;;;;;;6.27;1.83;;;;;;;;;;10382025;22;20041;-60
2023/09/15 00:39:44;;;;;;;3.60;1.77;;;;;;;;;;10384330;22;20114;-60
2023/09/15 00:43:44;;;;;;;2.83;1.58;;;;;;;;;;10382358;22;20084;-60
2023/09/15 00:47:46;;;;;;;3.20;1.52;;;;;;;;;;10382776;22;20048;-60
2023/09/15 00:51:48;;;;;;;2.88;1.60;;;;;;;;;;10379634;22;19999;-60
2023/09/15 00:55:51;;;;;;;7.88;1.98;;;;;;;;;;10383927;22;20015;-60
2023/09/15 00:59:52;;;;;;;5.63;1.80;;;;;;;;;;10384388;22;20009;-60
2023/09/15 01:03:53;;;;;;;3.40;1.40;;;;;;;;;;10384556;22;20011;-60
2023/09/15 01:07:53;;;;;;;4.97;1.50;;;;;;;;;;10379168;22;20473;-60
2023/09/15 01:11:54;;;;;;;2.72;1.25;;;;;;;;;;10383172;22;20042;-60
2023/09/15 01:15:58;;;;;;;3.28;1.60;;;;;;;;;;10382991;22;20016;-60
2023/09/15 01:20:06;;;;;;;2.72;1.35;;;;;;;;;;10388356;22;20007;-60
2023/09/15 01:24:12;;;;;;;3.22;1.55;;;;;;;;;;10386669;22;19998;-60
2023/09/15 01:28:16;;;;;;;2.85;1.42;;;;;;;;;;10386095;22;20002;-60
2023/09/15 01:32:18;;;;;;;3.60;1.50;;;;;;;;;;10387588;22;20015;-60
2023/09/15 01:36:19;;;;;;;4.38;1.70;;;;;;;;;;10385676;22;19999;-60
2023/09/15 01:40:19;;;;;;;3.80;1.85;;;;;;;;;;10384253;22;19999;-60
2023/09/15 01:44:20;;;;;;;3.03;1.60;;;;;;;;;;10388243;22;20114;-60
2023/09/15 01:48:22;;;;;;;3.30;1.60;;;;;;;;;;10385997;22;20106;-60
2023/09/15 01:52:25;;;;;;;2.13;1.48;;;;;;;;;;10385024;22;19999;-60
2023/09/15 01:56:28;;;;;;;3.03;1.58;;;;;;;;;;10387200;22;20022;-60
2023/09/15 02:00:35;;;;;;;4.97;1.80;;;;;;;;;;10382566;22;20035;-60
2023/09/15 02:04:37;;;;;;;4.05;1.30;;;;;;;;;;10383117;22;20003;-60
2023/09/15 02:08:37;;;;;;;3.63;1.40;;;;;;;;;;10382862;22;19999;-60
2023/09/15 02:12:37;;;;;;;2.60;1.45;;;;;;;;;;10381667;22;20715;-60
2023/09/15 02:16:38;;;;;;;3.00;1.63;;;;;;;;;;10384743;22;20098;-60
2023/09/15 02:20:38;;;;;;;3.60;1.63;;;;;;;;;;10382463;22;20821;-60
2023/09/15 02:24:38;;;;;;;2.60;1.40;;;;;;;;;;10385001;22;20003;-60
2023/09/15 02:28:38;;;;;;;3.25;1.60;;;;;;;;;;10384514;22;19991;-60
2023/09/15 02:32:38;;;;;;;5.33;2.10;;;;;;;;;;10383365;22;21079;-60
2023/09/15 02:36:39;;;;;;;2.90;1.50;;;;;;;;;;10385966;22;20400;-60
2023/09/15 02:40:39;;;;;;;6.33;2.33;;;;;;;;;;10384767;22;20007;-60
2023/09/15 02:44:40;;;;;;;4.28;1.50;;;;;;;;;;10385470;22;20239;-60
2023/09/15 02:48:43;;;;;;;5.22;1.70;;;;;;;;;;10384976;22;20147;-60
2023/09/15 02:52:44;;;;;;;2.42;1.58;;;;;;;;;;10382245;22;20014;-60
2023/09/15 02:56:45;;;;;;;3.53;1.75;;;;;;;;;;10381324;22;20003;-60
2023/09/15 03:00:45;;;;;;;3.22;1.48;;;;;;;;;;10382159;22;20027;-60
2023/09/15 03:04:48;;;;;;;5.78;1.80;;;;;;;;;;10381605;22;20417;-60
2023/09/15 03:08:48;;;;;;;3.40;1.30;;;;;;;;;;10384207;22;20013;-60
2023/09/15 03:12:51;;;;;;;3.17;1.50;;;;;;;;;;10384069;22;20740;-60
2023/09/15 03:16:51;;;;;;;4.35;1.73;;;;;;;;;;10385621;22;20007;-60
2023/09/15 03:20:51;;;;;;;3.38;1.40;;;;;;;;;;10387378;22;19995;-60
2023/09/15 03:24:52;;;;;;;3.90;1.73;;;;;;;;;;10385866;22;20014;-60
2023/09/15 03:28:52;;;;;;;4.55;1.55;;;;;;;;;;10384141;22;19999;-59
2023/09/15 03:32:53;;;;;;;3.65;1.63;;;;;;;;;;10380209;22;20076;-60
2023/09/15 03:36:53;;;;;;;3.55;1.60;;;;;;;;;;10385032;22;20031;-60
2023/09/15 03:40:53;;;;;;;3.38;1.67;;;;;;;;;;10382049;22;20109;-60
2023/09/15 03:44:54;;;;;;;3.22;1.50;;;;;;;;;;10382967;22;19999;-60
2023/09/15 03:48:54;;;;;;;2.90;1.60;;;;;;;;;;10382636;22;20026;-60
2023/09/15 03:52:55;;;;;;;3.40;1.42;;;;;;;;;;10379195;22;20066;-60
2023/09/15 03:56:55;;;;;;;3.53;1.70;;;;;;;;;;10381206;22;20007;-60
2023/09/15 04:00:55;;;;;;;4.88;2.00;;;;;;;;;;10377438;22;20023;-60
2023/09/15 04:04:55;;;;;;;3.70;1.60;;;;;;;;;;10380991;22;20003;-60
2023/09/15 04:08:57;;;;;;;3.13;1.50;;;;;;;;;;10381129;22;20003;-60
2023/09/15 04:12:57;;;;;;;3.42;1.60;;;;;;;;;;10382078;22;19999;-60
2023/09/15 04:16:57;;;;;;;3.05;1.55;;;;;;;;;;10372389;22;20015;-60
2023/09/15 04:20:57;;;;;;;3.95;2.00;;;;;;;;;;10378427;22;20007;-60
2023/09/15 04:24:57;;;;;;;2.55;1.50;;;;;;;;;;10378340;22;20686;-60
2023/09/15 04:28:59;;;;;;;2.75;1.50;;;;;;;;;;10378647;22;20085;-60
2023/09/15 04:32:59;;;;;;;3.03;1.70;;;;;;;;;;10375739;22;20019;-60
2023/09/15 04:37:00;;;;;;;4.07;2.00;;;;;;;;;;10375790;22;19999;-60
2023/09/15 04:41:00;;;;;;;2.90;1.63;;;;;;;;;;10375017;22;20750;-60
2023/09/15 04:45:00;;;;;;;5.70;2.00;;;;;;;;;;10379573;22;20130;-60
2023/09/15 04:49:00;;;;;;;5.43;1.70;;;;;;;;;;10377597;22;20602;-60
2023/09/15 04:53:02;;;;;;;4.57;1.80;;;;;;;;;;10375943;22;20261;-60
2023/09/15 04:57:04;;;;;;;3.40;1.90;;;;;;;;;;10375627;22;20038;-60
2023/09/15 05:01:05;;;;;;;5.85;2.08;;;;;;;;;;10376622;22;20703;-60
2023/09/15 05:05:06;;;;;;;4.88;1.67;;;;;;;;;;10377791;22;20020;-60
2023/09/15 05:09:10;;;;;;;5.43;2.00;;;;;;;;;;10376306;22;20789;-60
2023/09/15 05:13:10;;;;;;;3.28;2.05;;;;;;;;;;10373798;22;20353;-59
2023/09/15 05:17:10;;;;;;;8.93;2.15;;;;;;;;;;10376913;22;20470;-60
2023/09/15 05:21:11;;;;;;;4.68;2.22;;;;;;;;;;10374648;22;20102;-60
2023/09/15 05:25:11;;;;;;;9.38;2.13;;;;;;;;;;10373013;22;20038;-60
2023/09/15 05:29:12;;;;;;;5.33;2.07;;;;;;;;;;10371320;22;19991;-59
2023/09/15 05:33:12;;;;;;;3.47;2.20;;;;;;;;;;10370547;22;20229;-60
2023/09/15 05:37:12;;;;;;;9.27;2.67;;;;;;;;;;10373132;22;20061;-58
2023/09/15 05:41:13;;;;;;;8.95;2.03;;;;;;;;;;10371642;22;20792;-60
2023/09/15 05:45:13;;;;;;;9.57;2.72;;;;;;;;;;10370767;22;20039;-60
2023/09/15 05:49:13;;;;;;;11.32;1.98;;;;;;;;;;10373031;22;20344;-62
2023/09/15 05:53:14;;;;;;;8.18;2.17;;;;;;;;;;10373415;22;20002;-59
2023/09/15 05:57:14;;;;;;;4.72;2.30;;;;;;;;;;10369627;22;20721;-59
2023/09/15 06:01:14;;;;;;;4.57;1.90;;;;;;;;;;10375461;22;20007;-60
2023/09/15 06:05:17;;;;;;;6.35;2.15;;;;;;;;;;10374390;22;20037;-60
2023/09/15 06:09:17;;;;;;;8.32;2.13;;;;;;;;;;10373185;22;20481;-61
2023/09/15 06:13:17;;;;;;;6.57;1.90;;;;;;;;;;10358971;22;20080;-60
2023/09/15 06:17:18;;;;;;;4.77;1.97;;;;;;;;;;10373617;22;20524;-61
2023/09/15 06:21:18;;;;;;;7.50;2.20;;;;;;;;;;10376101;22;20205;-61
2023/09/15 06:25:18;;;;;;;7.13;1.98;;;;;;;;;;10373224;22;20010;-61
2023/09/15 06:29:18;;;;;;;8.18;2.15;;;;;;;;;;10373219;22;20067;-61
2023/09/15 06:33:19;;;;;;;4.80;1.87;;;;;;;;;;10374040;22;20019;-61
2023/09/15 06:37:19;;;;;;;5.30;2.00;;;;;;;;;;10377990;22;20023;-61
2023/09/15 06:41:19;;;;;;;3.10;1.67;;;;;;;;;;10373463;22;21038;-59
2023/09/15 06:45:19;;;;;;;3.47;1.88;;;;;;;;;;10376247;22;20004;-60
2023/09/15 06:49:21;;;;;;;7.27;1.90;;;;;;;;;;10374250;22;20015;-60
2023/09/15 06:53:21;;;;;;;4.77;1.83;;;;;;;;;;10379686;22;20450;-60
2023/09/15 06:57:22;;;;;;;5.55;1.90;;;;;;;;;;10378729;22;20007;-60
2023/09/15 07:01:23;;;;;;;8.90;2.00;;;;;;;;;;10382805;22;20011;-60
2023/09/15 07:05:23;;;;;;;4.97;2.05;;;;;;;;;;10372251;22;20669;-61
2023/09/15 07:09:24;;;;;;;5.53;1.73;;;;;;;;;;10376718;22;20571;-60
2023/09/15 07:13:24;;;;;;;5.00;1.70;;;;;;;;;;10379947;22;20441;-60
2023/09/15 07:17:24;;;;;;;7.63;2.22;;;;;;;;;;10375946;22;20043;-60
2023/09/15 07:21:24;;;;;;;3.55;1.77;;;;;;;;;;10377184;22;20007;-60
2023/09/15 07:25:24;;;;;;;6.00;2.00;;;;;;;;;;10376521;22;20007;-60
2023/09/15 07:29:25;;;;;;;6.03;2.00;;;;;;;;;;10375662;22;19995;-61
2023/09/15 07:33:25;;;;;;;4.13;2.38;;;;;;;;;;10372512;22;20555;-62
2023/09/15 07:37:26;;;;;;;4.37;1.87;;;;;;;;;;10373524;22;20003;-62
2023/09/15 07:41:27;;;;;;;5.35;1.70;;;;;;;;;;10372984;22;20010;-60
2023/09/15 07:45:28;;;;;;;4.40;2.00;;;;;;;;;;10369985;22;20081;-60
2023/09/15 07:49:28;;;;;;;3.03;1.75;;;;;;;;;;10369730;22;20038;-60
2023/09/15 07:53:28;;;;;;;6.13;1.90;;;;;;;;;;10374243;22;20014;-61
2023/09/15 07:57:29;;;;;;;4.05;2.00;;;;;;;;;;10367417;22;20000;-61
2023/09/15 08:01:29;;;;;;;2.33;1.60;;;;;;;;;;10367479;22;20102;-61
2023/09/15 08:05:29;;;;;;;3.00;1.55;;;;;;;;;;10373381;22;20069;-61
2023/09/15 08:09:30;;;;;;;4.57;1.95;;;;;;;;;;10377247;22;20014;-61
2023/09/15 08:13:30;;;;;;;4.40;1.80;;;;;;;;;;10376435;22;20004;-61
2023/09/15 08:17:30;;;;;;;4.65;1.85;;;;;;;;;;10377204;22;20384;-64
2023/09/15 08:21:31;;;;;;;3.10;1.73;;;;;;;;;;10378156;22;20045;-61
2023/09/15 08:25:31;;;;;;;4.85;1.88;;;;;;;;;;10373427;22;20003;-60
2023/09/15 08:29:31;;;;;;;3.95;1.80;;;;;;;;;;10377188;22;20000;-61
2023/09/15 08:33:31;;;;;;;2.60;1.65;;;;;;;;;;10373162;22;20016;-61
2023/09/15 08:37:31;;;;;;;2.63;1.75;;;;;;;;;;10375061;22;20007;-61
2023/09/15 08:41:52;;;;;;;3.70;1.70;;;;;;;;;;10378336;22;20006;-60
2023/09/15 08:45:52;;;;;;;2.22;1.67;;;;;;;;;;10376302;22;20023;-60
2023/09/15 08:49:52;;;;;;;2.43;1.90;;;;;;;;;;10375287;22;20440;-60
2023/09/15 08:53:56;;;;;;;3.17;1.73;;;;;;;;;;10376584;22;20237;-60
2023/09/15 08:57:57;;;;;;;5.68;2.15;;;;;;;;;;10376087;22;20009;-60
2023/09/15 09:01:57;;;;;;;3.38;2.00;;;;;;;;;;10368732;22;20038;-60
2023/09/15 09:05:57;;;;;;;4.80;2.28;;;;;;;;;;10375417;22;20021;-60
2023/09/15 09:09:59;;;;;;;5.20;2.03;;;;;;;;;;10377091;22;20427;-60
2023/09/15 09:13:59;;;;;;;2.13;1.58;;;;;;;;;;10374805;22;19995;-60
2023/09/15 09:17:59;;;;;;;3.70;2.00;;;;;;;;;;10372160;22;20011;-60
2023/09/15 09:22:00;;;;;;;4.07;2.03;;;;;;;;;;10375473;22;20002;-60
2023/09/15 09:26:00;;;;;;;5.22;2.20;;;;;;;;;;10375771;22;20015;-61
2023/09/15 09:30:01;;;;;;;3.67;1.77;;;;;;;;;;10371012;22;20011;-60
2023/09/15 09:34:01;;;;;;;2.30;1.88;;;;;;;;;;10368709;22;20019;-60
2023/09/15 09:38:01;;;;;;;5.03;2.20;;;;;;;;;;10364303;22;20899;-60
2023/09/15 09:42:02;;;;;;;5.50;2.00;;;;;;;;;;10371327;22;20000;-60
2023/09/15 09:46:03;;;;;;;4.20;2.35;;;;;;;;;;10370567;22;20662;-61
2023/09/15 09:50:05;;;;;;;2.90;2.05;;;;;;;;;;10369663;22;20311;-60
2023/09/15 09:54:08;;;;;;;5.20;2.25;;;;;;;;;;10373519;22;20002;-62
2023/09/15 09:58:12;;;;;;;3.22;2.20;;;;;;;;;;10373385;22;20118;-60
2023/09/15 10:02:12;;;;;;;4.57;2.85;;;;;;;;;;10371108;22;20425;-60
2023/09/15 10:06:13;;;;;;;3.55;2.10;;;;;;;;;;10371730;22;20003;-60
2023/09/15 10:10:13;;;;;;;4.95;2.90;;;;;;;;;;10373044;22;20597;-60
2023/09/15 10:14:14;;;;;;;4.03;2.30;;;;;;;;;;10371692;22;20098;-59
2023/09/15 10:18:15;;;;;;;5.40;2.33;;;;;;;;;;10370931;22;20112;-60
2023/09/15 10:22:16;;;;;;;6.13;2.63;;;;;;;;;;10370896;22;19999;-60
2023/09/15 10:26:16;;;;;;;3.50;2.22;;;;;;;;;;10374336;22;20178;-60
2023/09/15 10:30:16;;;;;;;4.97;3.60;;;;;;;;;;10370511;22;20427;-60
2023/09/15 10:34:17;;;;;;;6.20;3.63;;;;;;;;;;10374071;22;20415;-60
2023/09/15 10:38:27;;;;;;;4.63;3.13;;;;;;;;;;10373813;22;20007;-59
2023/09/15 10:42:28;;;;;;;3.53;2.50;;;;;;;;;;10376021;22;20236;-60
2023/09/15 10:46:38;;;;;;;6.03;3.33;;;;;;;;;;10374429;22;20046;-61
2023/09/15 10:50:39;;;;;;;3.17;2.40;;;;;;;;;;10372749;22;20110;-60
2023/09/15 10:54:40;;;;;;;8.10;3.80;;;;;;;;;;10368665;22;20045;-60
2023/09/15 10:58:40;;;;;;;4.80;2.63;;;;;;;;;;10371696;22;20007;-60
2023/09/15 11:02:40;;;;;;;6.35;3.10;;;;;;;;;;10369463;22;20018;-60
2023/09/15 11:06:40;;;;;;;5.28;2.83;;;;;;;;;;10371917;22;20003;-60
2023/09/15 11:10:42;;;;;;;4.63;2.78;;;;;;;;;;10371926;22;19999;-60
2023/09/15 11:14:42;;;;;;;4.37;2.13;;;;;;;;;;10378708;22;20003;-60
2023/09/15 11:18:44;;;;;;;3.40;2.47;;;;;;;;;;10374438;22;20023;-60
2023/09/15 11:22:45;;;;;;;3.55;2.30;;;;;;;;;;10377038;22;20118;-74
2023/09/15 11:26:46;;;;;;;5.95;2.85;;;;;;;;;;10391413;22;20018;-74
2023/09/15 11:30:46;;;;;;;4.25;2.85;;;;;;;;;;10395602;22;20003;-73
2023/09/15 11:34:46;;;;;;;3.75;2.13;;;;;;;;;;10390911;22;20402;-72
2023/09/15 11:38:47;;;;;;;4.47;2.03;;;;;;;;;;10386953;22;20416;-73
2023/09/15 11:42:55;;;;;;;4.03;1.88;;;;;;;;;;10358294;22;20011;-73
2023/09/15 11:46:58;;;;;;;3.05;2.40;;;;;;;;;;10378581;22;20740;-73
2023/09/15 11:51:00;;;;;;;3.47;2.47;;;;;;;;;;10384510;22;20062;-75
2023/09/15 11:55:00;;;;;;;3.80;2.70;;;;;;;;;;10386376;22;20006;-72
2023/09/15 11:59:01;;;;;;;7.60;2.30;;;;;;;;;;10383121;22;19999;-73
2023/09/15 12:03:03;;;;;;;1.75;1.63;;;;;;;;;;10380423;22;20007;-70
2023/09/15 12:07:05;;;;;;;3.08;1.80;;;;;;;;;;10381166;22;20824;-73
2023/09/15 12:11:09;;;;;;;2.28;1.83;;;;;;;;;;10380771;22;20094;-73
2023/09/15 12:15:09;;;;;;;2.33;1.63;;;;;;;;;;10382644;22;20017;-74
2023/09/15 12:19:10;;;;;;;1.93;1.73;;;;;;;;;;10382571;22;20057;-73
2023/09/15 12:23:15;;;;;;;2.42;1.75;;;;;;;;;;10379992;22;20003;-75
2023/09/15 12:27:16;;;;;;;3.55;1.85;;;;;;;;;;10365307;22;20014;-73
2023/09/15 12:31:18;;;;;;;2.15;1.70;;;;;;;;;;10373739;22;20039;-71
2023/09/15 12:35:20;;;;;;;2.45;1.65;;;;;;;;;;10379138;22;20010;-71
2023/09/15 12:39:20;;;;;;;2.00;1.60;;;;;;;;;;10377710;22;20010;-72
2023/09/15 12:43:21;;;;;;;2.88;1.70;;;;;;;;;;10383990;22;20003;-73
2023/09/15 12:47:23;;;;;;;1.80;1.60;;;;;;;;;;10384234;22;20046;-74
2023/09/15 12:51:23;;;;;;;1.70;1.60;;;;;;;;;;10392243;22;20078;-76
2023/09/15 12:55:23;;;;;;;2.55;1.70;;;;;;;;;;10400293;22;19995;-74
2023/09/15 12:59:24;;;;;;;3.10;1.70;;;;;;;;;;10386890;22;20067;-76
2023/09/15 13:03:24;;;;;;;2.40;1.60;;;;;;;;;;10387318;22;20673;-72
2023/09/15 13:07:24;;;;;;;2.80;1.73;;;;;;;;;;10389458;22;20006;-73
2023/09/15 13:11:26;;;;;;;2.20;2.00;;;;;;;;;;10393113;22;19999;-74
2023/09/15 13:15:26;;;;;;;2.78;1.80;;;;;;;;;;10356052;22;20003;-72
2023/09/15 13:19:27;;;;;;;2.08;1.92;;;;;;;;;;10379974;22;20010;-71
2023/09/15 13:23:27;;;;;;;1.83;1.60;;;;;;;;;;10384951;22;20654;-71
2023/09/15 13:27:28;;;;;;;1.70;1.50;;;;;;;;;;10373986;22;20593;-72
2023/09/15 13:31:28;;;;;;;2.10;1.80;;;;;;;;;;10376724;22;20015;-72
2023/09/15 13:35:28;;;;;;;1.83;1.70;;;;;;;;;;10375569;22;20003;-72
2023/09/15 13:39:29;;;;;;;1.88;1.73;;;;;;;;;;10374426;22;20842;-72
2023/09/15 13:43:30;;;;;;;2.80;1.98;;;;;;;;;;10373842;22;20110;-72
2023/09/15 13:47:32;;;;;;;3.45;2.10;;;;;;;;;;10376678;22;20023;-72
2023/09/15 13:51:32;;;;;;;3.88;2.20;;;;;;;;;;10374395;22;20072;-72
2023/09/15 13:55:33;;;;;;;2.63;2.10;;;;;;;;;;10378945;22;19995;-72
2023/09/15 13:59:33;;;;;;;2.80;2.35;;;;;;;;;;10370500;22;20084;-72
2023/09/15 14:03:33;;;;;;;4.40;2.30;;;;;;;;;;10375166;22;20016;-71
2023/09/15 14:07:34;;;;;;;2.70;2.45;;;;;;;;;;10371435;22;20097;-71
2023/09/15 14:11:34;;;;;;;4.53;2.20;;;;;;;;;;10370740;22;20035;-71
2023/09/15 14:15:34;;;;;;;2.80;2.47;;;;;;;;;;10373894;22;20008;-71
2023/09/15 14:19:34;;;;;;;2.55;2.33;;;;;;;;;;10373131;22;20090;-71
2023/09/15 14:23:35;;;;;;;2.25;2.05;;;;;;;;;;10371729;22;20102;-71
2023/09/15 14:27:35;;;;;;;3.83;2.30;;;;;;;;;;10370957;22;20097;-71
2023/09/15 14:31:35;;;;;;;2.60;2.20;;;;;;;;;;10373726;22;20039;-71
2023/09/15 14:35:35;;;;;;;2.33;2.13;;;;;;;;;;10374470;22;20037;-70
2023/09/15 14:39:36;;;;;;;2.80;2.50;;;;;;;;;;10375547;22;20003;-71
2023/09/15 14:43:36;;;;;;;4.13;2.60;;;;;;;;;;10374287;22;20072;-72
2023/09/15 14:47:36;;;;;;;2.57;2.23;;;;;;;;;;10369819;22;20015;-71
2023/09/15 14:51:37;;;;;;;3.67;2.30;;;;;;;;;;10369669;22;20033;-70
2023/09/15 14:55:37;;;;;;;4.18;2.45;;;;;;;;;;10370552;22;20003;-70
2023/09/15 14:59:38;;;;;;;5.80;2.20;;;;;;;;;;10371909;22;19999;-71
2023/09/15 15:03:38;;;;;;;2.65;2.05;;;;;;;;;;10368558;22;20054;-71
2023/09/15 15:07:38;;;;;;;4.65;2.40;;;;;;;;;;10377346;22;19999;-71
2023/09/15 15:11:38;;;;;;;3.13;2.50;;;;;;;;;;10368684;22;20003;-71
2023/09/15 15:15:43;;;;;;;4.57;2.13;;;;;;;;;;10371537;22;20003;-72
2023/09/15 15:19:44;;;;;;;3.40;2.55;;;;;;;;;;10369485;22;20695;-71
2023/09/15 15:23:44;;;;;;;2.55;2.35;;;;;;;;;;10374122;22;20033;-72
2023/09/15 15:27:44;;;;;;;3.42;2.60;;;;;;;;;;10373391;22;20007;-71
2023/09/15 15:31:47;;;;;;;5.43;2.33;;;;;;;;;;10368602;22;20015;-71
2023/09/15 15:35:56;;;;;;;2.42;2.22;;;;;;;;;;10373365;22;20003;-70
2023/09/15 15:39:57;;;;;;;4.55;2.83;;;;;;;;;;10370645;22;20608;-70
2023/09/15 15:43:57;;;;;;;5.00;2.83;;;;;;;;;;10373724;22;20004;-71
2023/09/15 15:47:58;;;;;;;2.57;2.37;;;;;;;;;;10370514;22;20034;-71
2023/09/15 15:51:58;;;;;;;3.03;2.10;;;;;;;;;;10370832;22;20006;-71
2023/09/15 15:55:59;;;;;;;2.20;2.08;;;;;;;;;;10372273;22;20755;-71
2023/09/15 15:59:59;;;;;;;2.85;2.20;;;;;;;;;;10373841;22;20003;-71
2023/09/15 16:04:00;;;;;;;2.30;2.00;;;;;;;;;;10371739;22;20007;-71
2023/09/15 16:08:01;;;;;;;4.40;2.20;;;;;;;;;;10373381;22;20082;-71
2023/09/15 16:12:01;;;;;;;3.15;2.30;;;;;;;;;;10373597;22;20373;-71
2023/09/15 16:16:02;;;;;;;3.70;2.40;;;;;;;;;;10375144;22;20062;-71
2023/09/15 16:20:02;;;;;;;3.20;2.20;;;;;;;;;;10373778;22;20305;-71
2023/09/15 16:24:02;;;;;;;3.55;1.83;;;;;;;;;;10376019;22;20014;-71
2023/09/15 16:28:03;;;;;;;2.10;2.00;;;;;;;;;;10349980;22;20081;-70
2023/09/15 16:32:03;;;;;;;2.63;1.70;;;;;;;;;;10373702;22;20483;-71
2023/09/15 16:36:04;;;;;;;1.90;1.80;;;;;;;;;;10373980;22;20021;-71
2023/09/15 16:40:04;;;;;;;2.90;1.90;;;;;;;;;;10376206;22;20463;-71
2023/09/15 16:44:05;;;;;;;2.15;1.70;;;;;;;;;;10374424;22;20217;-71
2023/09/15 16:48:06;;;;;;;3.40;1.80;;;;;;;;;;10377211;22;20070;-71
2023/09/15 16:52:06;;;;;;;4.03;1.60;;;;;;;;;;10374024;22;21114;-71
2023/09/15 16:56:06;;;;;;;3.88;1.70;;;;;;;;;;10374419;22;20068;-71
2023/09/15 17:00:08;;;;;;;4.03;1.70;;;;;;;;;;10372829;22;20099;-71
2023/09/15 17:04:08;;;;;;;1.52;1.40;;;;;;;;;;10377253;22;20221;-69
2023/09/15 17:08:08;;;;;;;1.65;1.52;;;;;;;;;;10378763;22;20004;-70
2023/09/15 17:12:09;;;;;;;1.70;1.60;;;;;;;;;;10378105;22;20804;-71
2023/09/15 17:16:09;;;;;;;1.80;1.50;;;;;;;;;;10374935;22;20081;-70
2023/09/15 17:20:10;;;;;;;1.50;1.40;;;;;;;;;;10376833;22;20030;-70
2023/09/15 17:24:10;;;;;;;1.85;1.45;;;;;;;;;;10374187;22;20004;-71
2023/09/15 17:28:11;;;;;;;1.92;1.50;;;;;;;;;;10377170;22;20502;-70
2023/09/15 17:32:11;;;;;;;2.42;1.70;;;;;;;;;;10374883;22;20018;-71
2023/09/15 17:36:11;;;;;;;3.53;1.50;;;;;;;;;;10375685;22;20000;-70
2023/09/15 17:40:13;;;;;;;2.10;1.58;;;;;;;;;;10371332;22;20009;-71
2023/09/15 17:44:13;;;;;;;2.95;1.42;;;;;;;;;;10375984;22;20078;-70
2023/09/15 17:48:13;;;;;;;1.52;1.42;;;;;;;;;;10370522;22;20015;-70
2023/09/15 17:52:13;;;;;;;1.60;1.50;;;;;;;;;;10373646;22;20532;-71
2023/09/15 17:56:14;;;;;;;1.98;1.70;;;;;;;;;;10376223;22;20011;-70
2023/09/15 18:00:16;;;;;;;3.30;1.70;;;;;;;;;;10370426;22;20828;-71
2023/09/15 18:04:16;;;;;;;1.80;1.70;;;;;;;;;;10374106;22;20754;-71
2023/09/15 18:08:17;;;;;;;2.10;1.67;;;;;;;;;;10374073;22;20029;-71
2023/09/15 18:12:17;;;;;;;2.95;1.48;;;;;;;;;;10372440;22;20010;-71
2023/09/15 18:16:18;;;;;;;2.00;1.50;;;;;;;;;;10372362;22;20074;-71
2023/09/15 18:20:19;;;;;;;3.38;1.65;;;;;;;;;;10370783;22;20061;-75
2023/09/15 18:24:19;;;;;;;1.60;1.50;;;;;;;;;;10378905;22;20015;-74
2023/09/15 18:28:21;;;;;;;1.50;1.40;;;;;;;;;;10372329;22;20004;-75
2023/09/15 18:32:21;;;;;;;2.90;1.45;;;;;;;;;;10375024;22;20019;-71
2023/09/15 18:36:23;;;;;;;1.50;1.40;;;;;;;;;;10380422;22;20035;-72
2023/09/15 18:40:24;;;;;;;1.52;1.42;;;;;;;;;;10378013;22;20496;-72
2023/09/15 18:44:24;;;;;;;3.15;1.55;;;;;;;;;;10379325;22;20641;-71
2023/09/15 18:48:25;;;;;;;3.55;1.92;;;;;;;;;;10370118;22;20011;-72
2023/09/15 18:52:25;;;;;;;3.00;1.70;;;;;;;;;;10374342;22;20007;-71
2023/09/15 18:56:25;;;;;;;3.17;1.77;;;;;;;;;;10374694;22;20033;-72
2023/09/15 19:00:26;;;;;;;2.10;1.80;;;;;;;;;;10375672;22;20023;-72
2023/09/15 19:04:26;;;;;;;3.65;1.55;;;;;;;;;;10376199;22;20003;-71
2023/09/15 19:08:26;;;;;;;1.93;1.80;;;;;;;;;;10376792;22;19999;-72
2023/09/15 19:12:27;;;;;;;3.20;2.05;;;;;;;;;;10373175;22;19995;-73
2023/09/15 19:16:27;;;;;;;2.10;1.90;;;;;;;;;;10348006;22;20015;-71
2023/09/15 19:20:28;;;;;;;2.63;1.90;;;;;;;;;;10372251;22;20799;-72
2023/09/15 19:24:29;;;;;;;2.10;1.90;;;;;;;;;;10372595;22;20014;-72
2023/09/15 19:28:31;;;;;;;1.90;1.80;;;;;;;;;;10376198;22;20084;-73
2023/09/15 19:32:32;;;;;;;2.90;1.90;;;;;;;;;;10371698;22;20018;-72
2023/09/15 19:36:32;;;;;;;2.15;1.98;;;;;;;;;;10375852;22;20006;-72
2023/09/15 19:40:32;;;;;;;2.63;2.43;;;;;;;;;;10372252;22;20662;-71
2023/09/15 19:44:33;;;;;;;2.15;2.05;;;;;;;;;;10371352;22;20785;-72
2023/09/15 19:48:33;;;;;;;3.75;2.00;;;;;;;;;;10373393;22;20015;-72
2023/09/15 19:52:33;;;;;;;2.13;1.90;;;;;;;;;;10377461;22;20057;-72
2023/09/15 19:56:33;;;;;;;2.20;2.00;;;;;;;;;;10379093;22;20003;-72
2023/09/15 20:00:35;;;;;;;2.30;2.10;;;;;;;;;;10375911;22;20019;-72
2023/09/15 20:04:36;;;;;;;2.58;2.25;;;;;;;;;;10377158;22;20554;-72
2023/09/15 20:08:37;;;;;;;3.83;2.30;;;;;;;;;;10379202;22;20177;-72
2023/09/15 20:12:38;;;;;;;3.05;2.30;;;;;;;;;;10377857;22;20073;-72
2023/09/15 20:16:38;;;;;;;2.17;1.98;;;;;;;;;;10377077;22;20011;-72
2023/09/15 20:20:40;;;;;;;2.90;2.60;;;;;;;;;;10378856;22;20057;-71
2023/09/15 20:24:40;;;;;;;2.75;2.28;;;;;;;;;;10377967;22;20014;-71
2023/09/15 20:28:42;;;;;;;4.15;2.30;;;;;;;;;;10375633;22;19999;-72
2023/09/15 20:32:42;;;;;;;2.85;2.13;;;;;;;;;;10376302;22;20019;-72
2023/09/15 20:36:42;;;;;;;3.33;2.30;;;;;;;;;;10376823;22;20030;-72
2023/09/15 20:40:43;;;;;;;2.20;2.00;;;;;;;;;;10376867;22;20069;-72
2023/09/15 20:44:44;;;;;;;2.58;2.20;;;;;;;;;;10378074;22;20009;-72
2023/09/15 20:48:44;;;;;;;2.75;2.20;;;;;;;;;;10376908;22;21090;-72
2023/09/15 20:52:45;;;;;;;2.30;2.08;;;;;;;;;;10377233;22;19999;-72
2023/09/15 20:56:46;;;;;;;2.67;1.90;;;;;;;;;;10375522;22;20859;-72
2023/09/15 21:00:50;;;;;;;4.18;2.20;;;;;;;;;;10375412;22;20165;-72
2023/09/15 21:04:50;;;;;;;2.45;2.25;;;;;;;;;;10378858;22;20060;-72
2023/09/15 21:08:50;;;;;;;2.40;2.20;;;;;;;;;;10382378;22;20053;-72
2023/09/15 21:12:51;;;;;;;2.40;2.20;;;;;;;;;;10375534;22;20042;-72
2023/09/15 21:16:53;;;;;;;3.20;2.10;;;;;;;;;;10381483;22;20131;-72
2023/09/15 21:20:53;;;;;;;3.95;2.15;;;;;;;;;;10380415;22;19999;-72
2023/09/15 21:24:53;;;;;;;2.55;2.08;;;;;;;;;;10386376;22;20053;-71
2023/09/15 21:28:53;;;;;;;3.55;2.30;;;;;;;;;;10383376;22;19995;-72
2023/09/15 21:32:53;;;;;;;2.42;2.22;;;;;;;;;;10384635;22;20015;-71
2023/09/15 21:36:54;;;;;;;2.30;2.00;;;;;;;;;;10385238;22;20003;-71
2023/09/15 21:40:54;;;;;;;2.80;2.00;;;;;;;;;;10382712;22;20015;-72
2023/09/15 21:44:54;;;;;;;3.40;2.20;;;;;;;;;;10374505;22;20245;-72
2023/09/15 21:48:55;;;;;;;2.42;2.22;;;;;;;;;;10374698;22;20662;-72
2023/09/15 21:52:55;;;;;;;2.63;2.42;;;;;;;;;;10375633;22;20065;-71
2023/09/15 21:56:55;;;;;;;2.40;2.20;;;;;;;;;;10375855;22;20003;-71
2023/09/15 22:00:56;;;;;;;4.43;2.50;;;;;;;;;;10376623;22;20102;-71
2023/09/15 22:04:56;;;;;;;2.95;2.17;;;;;;;;;;10377523;22;20069;-71
2023/09/15 22:08:58;;;;;;;2.27;2.10;;;;;;;;;;10372509;22;20014;-72
2023/09/15 22:12:58;;;;;;;2.53;2.33;;;;;;;;;;10374314;22;20221;-72
2023/09/15 22:16:58;;;;;;;3.10;2.40;;;;;;;;;;10378606;22;20353;-72
2023/09/15 22:20:59;;;;;;;2.50;2.30;;;;;;;;;;10376475;22;19995;-71
2023/09/15 22:24:59;;;;;;;2.60;2.40;;;;;;;;;;10376695;22;20039;-71
2023/09/15 22:29:01;;;;;;;2.40;2.20;;;;;;;;;;10374813;22;19995;-71
2023/09/15 22:33:04;;;;;;;2.28;2.08;;;;;;;;;;10373494;22;20977;-72
2023/09/15 22:37:04;;;;;;;3.80;2.40;;;;;;;;;;10378869;22;20042;-71
2023/09/15 22:41:05;;;;;;;2.08;1.98;;;;;;;;;;10375275;22;20002;-71
2023/09/15 22:45:12;;;;;;;2.50;2.30;;;;;;;;;;10374671;22;20189;-71
2023/09/15 22:49:14;;;;;;;2.15;1.95;;;;;;;;;;10375841;22;20002;-71
2023/09/15 22:53:16;;;;;;;2.83;2.58;;;;;;;;;;10373925;22;20102;-71
2023/09/15 22:57:16;;;;;;;2.40;2.10;;;;;;;;;;10375788;22;19995;-71
2023/09/15 23:01:16;;;;;;;2.30;2.10;;;;;;;;;;10363301;22;20015;-71
2023/09/15 23:05:17;;;;;;;2.58;2.38;;;;;;;;;;10373677;22;20276;-71
2023/09/15 23:09:17;;;;;;;2.28;2.08;;;;;;;;;;10372963;22;19999;-71
2023/09/15 23:13:17;;;;;;;2.60;2.40;;;;;;;;;;10376125;22;20717;-71
2023/09/15 23:17:18;;;;;;;3.40;2.83;;;;;;;;;;10373852;22;20073;-71
2023/09/15 23:21:18;;;;;;;3.63;2.45;;;;;;;;;;10370382;22;20022;-71
2023/09/15 23:25:18;;;;;;;3.88;2.70;;;;;;;;;;10379687;22;20003;-71
2023/09/15 23:29:18;;;;;;;2.63;2.42;;;;;;;;;;10378216;22;19995;-71
2023/09/15 23:33:19;;;;;;;3.37;2.50;;;;;;;;;;10375142;22;20464;-71
2023/09/15 23:37:19;;;;;;;3.15;2.85;;;;;;;;;;10378505;22;20030;-71
2023/09/15 23:41:20;;;;;;;2.50;2.30;;;;;;;;;;10379036;22;20006;-71
2023/09/15 23:45:20;;;;;;;2.67;2.47;;;;;;;;;;10377554;22;20013;-72